createdAt,value
2022-10-06T00:01:18.094Z,100598.31
2022-10-06T00:04:20.602Z,100593.41
2022-10-06T00:07:24.382Z,100602.84
2022-10-06T00:10:27.910Z,100597.84
2022-10-06T00:13:30.616Z,100607.44
2022-10-06T00:16:33.090Z,100603.75
2022-10-06T00:19:35.615Z,100603.88
2022-10-06T00:22:41.902Z,100603.56
2022-10-06T00:25:44.359Z,100604.00
2022-10-06T00:28:47.835Z,100610.75
2022-10-06T00:31:50.443Z,100617.59
2022-10-06T00:34:54.062Z,100625.44
2022-10-06T00:37:57.847Z,100629.22
2022-10-06T00:41:00.355Z,100630.69
2022-10-06T00:44:02.843Z,100630.56
2022-10-06T00:47:05.905Z,100627.69
2022-10-06T00:50:11.790Z,100628.56
2022-10-06T00:53:16.823Z,100629.09
2022-10-06T00:56:19.346Z,100630.94
2022-10-06T00:59:21.813Z,100631.63
2022-10-06T01:02:31.535Z,100636.03
2022-10-06T01:05:41.427Z,100638.78
2022-10-06T01:08:46.725Z,100640.75
2022-10-06T01:11:51.181Z,100643.69
2022-10-06T01:14:53.810Z,100644.53
2022-10-06T01:18:02.102Z,100640.50
2022-10-06T01:21:09.546Z,100641.19
2022-10-06T01:24:13.708Z,100644.16
2022-10-06T01:27:17.490Z,100640.63
2022-10-06T01:30:23.249Z,100647.38
2022-10-06T01:33:25.733Z,100635.81
2022-10-06T01:36:28.202Z,100648.97
2022-10-06T01:39:32.006Z,100650.50
2022-10-06T01:42:35.833Z,100655.84
2022-10-06T01:45:38.413Z,100663.72
2022-10-06T01:48:40.882Z,100654.41
2022-10-06T01:51:43.345Z,100647.03
2022-10-06T01:54:47.294Z,100660.19
2022-10-06T01:57:49.754Z,100661.19
2022-10-06T02:00:52.604Z,100664.38
2022-10-06T02:03:55.150Z,100665.97
2022-10-06T02:06:58.970Z,100670.75
2022-10-06T02:10:02.875Z,100672.19
2022-10-06T02:13:05.415Z,100676.38
2022-10-06T02:16:09.010Z,100675.84
2022-10-06T02:19:11.596Z,100678.00
2022-10-06T02:22:14.079Z,100685.97
2022-10-06T02:25:18.313Z,100700.16
2022-10-06T02:28:20.797Z,100689.84
2022-10-06T02:31:23.485Z,100691.84
2022-10-06T02:34:26.168Z,100686.72
2022-10-06T02:37:28.730Z,100695.25
2022-10-06T02:40:32.726Z,100694.47
2022-10-06T02:43:36.030Z,100705.13
2022-10-06T02:46:38.573Z,100705.34
2022-10-06T02:49:41.074Z,100704.25
2022-10-06T02:52:43.539Z,100712.16
2022-10-06T02:55:47.373Z,100722.59
2022-10-06T02:58:51.174Z,100715.16
2022-10-06T03:01:54.849Z,100720.06
2022-10-06T03:04:57.325Z,100719.41
2022-10-06T03:07:59.782Z,100730.72
2022-10-06T03:11:06.812Z,100733.38
2022-10-06T03:14:10.051Z,100734.22
2022-10-06T03:17:12.551Z,100744.66
2022-10-06T03:20:15.030Z,100761.25
2022-10-06T03:23:17.552Z,100761.25
2022-10-06T03:26:23.130Z,100780.31
2022-10-06T03:29:25.559Z,100795.22
2022-10-06T03:32:28.040Z,100794.78
2022-10-06T03:35:30.514Z,100811.31
2022-10-06T03:38:33.748Z,100817.56
2022-10-06T03:41:38.921Z,100813.00
2022-10-06T03:44:41.401Z,100818.13
2022-10-06T03:47:43.844Z,100820.63
2022-10-06T03:50:55.038Z,100836.09
2022-10-06T03:53:58.089Z,100827.75
2022-10-06T03:57:01.889Z,100843.88
2022-10-06T04:00:06.234Z,100861.63
2022-10-06T04:03:09.357Z,100881.56
2022-10-06T04:06:14.294Z,100889.22
2022-10-06T04:09:17.600Z,100889.91
2022-10-06T04:12:21.384Z,100896.13
2022-10-06T04:15:23.861Z,100905.53
2022-10-06T04:18:26.994Z,100899.91
2022-10-06T04:21:31.546Z,100917.97
2022-10-06T04:24:34.026Z,100903.59
2022-10-06T04:27:37.825Z,100922.88
2022-10-06T04:30:40.291Z,100920.75
2022-10-06T04:33:43.103Z,100931.06
2022-10-06T04:36:46.671Z,100932.00
2022-10-06T04:39:49.113Z,100941.06
2022-10-06T04:42:52.894Z,100945.59
2022-10-06T04:45:59.093Z,100951.50
2022-10-06T04:49:01.684Z,100944.09
2022-10-06T04:52:04.902Z,100951.44
2022-10-06T04:55:08.050Z,100960.16
2022-10-06T04:58:12.000Z,100971.16
2022-10-06T05:01:16.664Z,100972.41
2022-10-06T05:04:19.192Z,100981.34
2022-10-06T05:07:21.730Z,100995.34
2022-10-06T05:10:24.200Z,100996.50
2022-10-06T05:13:28.194Z,101005.88
2022-10-06T05:16:32.096Z,101006.47
2022-10-06T05:19:34.600Z,101015.03
2022-10-06T05:22:37.062Z,101012.97
2022-10-06T05:25:39.594Z,101018.91
2022-10-06T05:28:43.550Z,101034.03
2022-10-06T05:31:46.769Z,101032.66
2022-10-06T05:34:49.297Z,101055.47
2022-10-06T05:37:51.761Z,101050.81
2022-10-06T05:41:01.771Z,101064.88
2022-10-06T05:44:05.831Z,101071.38
2022-10-06T05:47:08.303Z,101093.84
2022-10-06T05:50:10.800Z,101096.19
2022-10-06T05:53:13.358Z,101105.81
2022-10-06T05:56:18.122Z,101099.97
2022-10-06T05:59:21.965Z,101125.16
2022-10-06T06:02:24.531Z,101125.00
2022-10-06T06:05:27.083Z,101132.53
2022-10-06T06:08:29.774Z,101149.88
2022-10-06T06:11:32.622Z,101145.03
2022-10-06T06:15:02.521Z,101159.94
2022-10-06T06:18:06.072Z,101177.72
2022-10-06T06:21:10.698Z,101186.38
2022-10-06T06:24:13.129Z,101186.72
2022-10-06T06:27:15.805Z,101202.91
2022-10-06T06:30:21.135Z,101196.94
2022-10-06T06:33:23.586Z,101206.06
2022-10-06T06:36:28.342Z,101221.97
2022-10-06T06:39:30.799Z,101219.00
2022-10-06T06:42:33.288Z,101228.56
2022-10-06T06:45:37.068Z,101246.72
2022-10-06T06:48:39.552Z,101254.09
2022-10-06T06:51:44.158Z,101258.44
2022-10-06T06:54:49.935Z,101260.03
2022-10-06T06:57:52.592Z,101260.47
2022-10-06T07:00:56.404Z,101265.69
2022-10-06T07:03:59.674Z,101281.41
2022-10-06T07:07:02.273Z,101286.47
2022-10-06T07:10:05.163Z,101291.34
2022-10-06T07:13:07.754Z,101299.91
2022-10-06T07:16:31.938Z,101303.00
2022-10-06T07:19:51.822Z,101302.88
2022-10-06T07:23:12.290Z,101303.78
2022-10-06T07:26:14.747Z,101313.06
2022-10-06T07:29:17.354Z,101317.41
2022-10-06T07:32:21.521Z,101320.25
2022-10-06T07:35:25.219Z,101336.63
2022-10-06T07:38:28.034Z,101329.75
2022-10-06T07:41:30.862Z,101335.97
2022-10-06T07:44:33.334Z,101348.47
2022-10-06T07:47:38.291Z,101359.41
2022-10-06T07:50:41.264Z,101361.53
2022-10-06T07:53:46.514Z,101360.03
2022-10-06T07:56:49.005Z,101368.88
2022-10-06T07:59:51.605Z,101375.59
2022-10-06T08:02:55.663Z,101376.69
2022-10-06T08:06:00.109Z,101393.75
2022-10-06T08:09:02.671Z,101389.94
2022-10-06T08:12:25.956Z,101400.41
2022-10-06T08:15:28.514Z,101407.28
2022-10-06T08:18:46.130Z,101413.72
2022-10-06T08:21:49.448Z,101423.94
2022-10-06T08:25:05.649Z,101425.41
2022-10-06T08:28:09.223Z,101432.91
2022-10-06T08:31:13.228Z,101440.47
2022-10-06T08:34:17.140Z,101441.09
2022-10-06T08:37:23.884Z,101449.44
2022-10-06T08:40:27.501Z,101448.25
2022-10-06T08:43:33.013Z,101451.00
2022-10-06T08:46:40.184Z,101462.19
2022-10-06T08:49:45.937Z,101469.44
2022-10-06T08:52:56.487Z,101461.59
2022-10-06T08:56:04.373Z,101460.75
2022-10-06T08:59:09.786Z,101474.78
2022-10-06T09:02:25.874Z,101489.91
2022-10-06T09:05:31.511Z,101489.72
2022-10-06T09:08:48.734Z,101492.78
2022-10-06T09:12:01.182Z,101501.50
2022-10-06T09:15:21.033Z,101514.72
2022-10-06T09:18:49.367Z,101517.09
2022-10-06T09:21:55.491Z,101513.03
2022-10-06T09:25:00.580Z,101509.81
2022-10-06T09:28:04.089Z,101522.91
2022-10-06T09:31:21.026Z,101527.81
2022-10-06T09:34:29.477Z,101528.38
2022-10-06T09:37:53.516Z,101533.88
2022-10-06T09:40:56.366Z,101542.56
2022-10-06T09:44:00.442Z,101546.69
2022-10-06T09:47:02.964Z,101554.22
2022-10-06T09:50:20.498Z,101549.47
2022-10-06T09:53:24.554Z,101562.69
2022-10-06T09:56:27.293Z,101563.94
2022-10-06T09:59:39.137Z,101568.88
2022-10-06T10:02:43.052Z,101568.34
2022-10-06T10:05:48.989Z,101557.53
2022-10-06T10:08:54.651Z,101571.16
2022-10-06T10:12:33.891Z,101580.25
2022-10-06T10:15:49.939Z,101585.13
2022-10-06T10:18:53.109Z,101580.78
2022-10-06T10:21:57.314Z,101583.53
2022-10-06T10:25:10.096Z,101591.03
2022-10-06T10:28:25.299Z,101589.53
2022-10-06T10:31:34.540Z,101587.38
2022-10-06T10:34:51.466Z,101603.47
2022-10-06T10:38:00.938Z,101611.72
2022-10-06T10:41:10.338Z,101615.09
2022-10-06T10:44:24.249Z,101605.25
2022-10-06T10:47:31.314Z,101613.31
2022-10-06T10:50:49.131Z,101608.03
2022-10-06T10:53:56.580Z,101619.59
2022-10-06T10:57:00.489Z,101629.19
2022-10-06T11:00:07.468Z,101629.69
2022-10-06T11:03:11.023Z,101627.66
2022-10-06T11:06:28.668Z,101626.09
2022-10-06T11:09:41.350Z,101628.97
2022-10-06T11:13:11.863Z,101632.84
2022-10-06T11:16:29.654Z,101639.75
2022-10-06T11:19:45.138Z,101621.50
2022-10-06T11:22:55.967Z,101628.53
2022-10-06T11:26:10.416Z,101627.38
2022-10-06T11:29:25.624Z,101633.38
2022-10-06T11:32:40.473Z,101649.22
2022-10-06T11:35:45.803Z,101642.06
2022-10-06T11:38:56.478Z,101653.50
2022-10-06T11:42:04.715Z,101652.84
2022-10-06T11:45:14.640Z,101654.25
2022-10-06T11:48:24.477Z,101662.88
2022-10-06T11:51:31.476Z,101662.41
2022-10-06T11:54:48.264Z,101665.31
2022-10-06T11:58:23.786Z,101678.78
2022-10-06T12:01:54.084Z,101678.50
2022-10-06T12:08:56.506Z,101686.94
2022-10-06T12:12:00.455Z,101680.78
2022-10-06T12:17:06.116Z,101681.91
2022-10-06T12:18:45.982Z,101684.06
2022-10-06T12:21:55.495Z,101690.31
2022-10-06T12:25:06.377Z,101690.47
2022-10-06T12:28:18.089Z,101699.97
2022-10-06T12:31:36.106Z,101686.03
2022-10-06T12:34:44.243Z,101707.41
2022-10-06T12:37:53.974Z,101700.44
2022-10-06T12:40:57.605Z,101708.41
2022-10-06T12:44:00.723Z,101708.84
2022-10-06T12:47:07.039Z,101717.28
2022-10-06T12:50:18.397Z,101724.03
2022-10-06T12:53:25.574Z,101728.88
2022-10-06T12:56:31.871Z,101709.84
2022-10-06T12:59:38.388Z,101724.34
2022-10-06T13:02:45.098Z,101725.84
2022-10-06T13:05:56.004Z,101717.81
2022-10-06T13:09:17.527Z,101727.44
2022-10-06T13:12:22.608Z,101725.16
2022-10-06T13:15:29.153Z,101724.72
2022-10-06T13:18:32.758Z,101729.16
2022-10-06T13:21:36.828Z,101726.63
2022-10-06T13:24:40.046Z,101741.28
2022-10-06T13:27:49.878Z,101741.44
2022-10-06T13:30:54.603Z,101739.59
2022-10-06T13:34:00.794Z,101743.25
2022-10-06T13:37:05.190Z,101747.22
2022-10-06T13:40:21.682Z,101753.09
2022-10-06T13:43:30.406Z,101755.69
2022-10-06T13:46:40.489Z,101755.31
2022-10-06T13:49:48.652Z,101754.66
2022-10-06T13:52:52.504Z,101749.97
2022-10-06T13:55:55.716Z,101752.53
2022-10-06T13:58:58.261Z,101753.50
2022-10-06T14:02:15.053Z,101747.41
2022-10-06T14:05:30.263Z,101762.50
2022-10-06T14:08:34.853Z,101761.94
2022-10-06T14:11:37.362Z,101758.94
2022-10-06T14:14:40.327Z,101751.94
2022-10-06T14:17:42.916Z,101754.31
2022-10-06T14:20:49.287Z,101757.66
2022-10-06T14:23:54.348Z,101761.72
2022-10-06T14:27:02.472Z,101765.00
2022-10-06T14:30:05.770Z,101768.06
2022-10-06T14:33:09.186Z,101763.53
2022-10-06T14:36:23.700Z,101763.34
2022-10-06T14:39:28.460Z,101769.25
2022-10-06T14:42:31.953Z,101763.38
2022-10-06T14:45:36.080Z,101769.41
2022-10-06T14:48:38.838Z,101763.34
2022-10-06T14:51:42.891Z,101773.31
2022-10-06T14:54:47.341Z,101770.25
2022-10-06T14:57:50.239Z,101769.97
2022-10-06T15:00:52.771Z,101762.09
2022-10-06T15:03:56.878Z,101756.25
2022-10-06T15:07:16.852Z,101751.38
2022-10-06T15:10:20.651Z,101770.06
2022-10-06T15:13:23.095Z,101767.47
2022-10-06T15:16:26.608Z,101760.00
2022-10-06T15:19:29.330Z,101772.09
2022-10-06T15:22:31.965Z,101759.31
2022-10-06T15:25:53.780Z,101770.56
2022-10-06T15:29:03.170Z,101771.00
2022-10-06T15:32:06.706Z,101775.16
2022-10-06T15:35:10.052Z,101769.69
2022-10-06T15:38:12.509Z,101768.97
2022-10-06T15:41:16.793Z,101769.81
2022-10-06T15:44:20.501Z,101790.53
2022-10-06T15:47:23.835Z,101778.28
2022-10-06T15:50:26.290Z,101773.16
2022-10-06T15:53:28.728Z,101773.38
2022-10-06T15:56:32.855Z,101781.59
2022-10-06T15:59:35.943Z,101779.75
2022-10-06T16:02:38.474Z,101781.50
2022-10-06T16:05:51.129Z,101780.13
2022-10-06T16:08:53.578Z,101778.97
2022-10-06T16:11:58.708Z,101775.56
2022-10-06T16:15:01.181Z,101780.19
2022-10-06T16:18:03.643Z,101785.28
2022-10-06T16:21:06.400Z,101787.63
2022-10-06T16:24:09.462Z,101786.94
2022-10-06T16:27:14.882Z,101789.59
2022-10-06T16:30:17.564Z,101794.94
2022-10-06T16:33:20.028Z,101792.44
2022-10-06T16:36:22.621Z,101805.81
2022-10-06T16:39:25.510Z,101795.72
2022-10-06T16:42:29.293Z,101795.56
2022-10-06T16:45:31.734Z,101795.81
2022-10-06T16:48:35.696Z,101804.94
2022-10-06T16:51:40.071Z,101815.38
2022-10-06T16:54:42.526Z,101805.78
2022-10-06T16:57:46.407Z,101803.56
2022-10-06T17:00:57.131Z,101813.66
2022-10-06T17:04:00.409Z,101803.44
2022-10-06T17:07:04.206Z,101810.28
2022-10-06T17:10:20.057Z,101811.94
2022-10-06T17:13:25.996Z,101811.75
2022-10-06T17:16:30.320Z,101820.25
2022-10-06T17:19:32.778Z,101814.56
2022-10-06T17:22:35.314Z,101827.44
2022-10-06T17:25:37.759Z,101834.34
2022-10-06T17:28:42.096Z,101829.00
2022-10-06T17:31:44.939Z,101823.53
2022-10-06T17:34:47.807Z,101822.97
2022-10-06T17:37:50.871Z,101827.75
2022-10-06T17:40:53.326Z,101822.00
2022-10-06T17:43:59.015Z,101826.97
2022-10-06T17:47:01.483Z,101826.72
2022-10-06T17:50:04.099Z,101824.16
2022-10-06T17:53:07.010Z,101824.78
2022-10-06T17:56:11.258Z,101822.88
2022-10-06T17:59:17.392Z,101832.69
2022-10-06T18:02:20.054Z,101834.59
2022-10-06T18:05:22.568Z,101829.53
2022-10-06T18:08:25.558Z,101838.16
2022-10-06T18:11:39.793Z,101828.59
2022-10-06T18:14:43.870Z,101843.25
2022-10-06T18:17:49.030Z,101841.06
2022-10-06T18:20:51.599Z,101838.72
2022-10-06T18:23:55.854Z,101841.78
2022-10-06T18:27:00.821Z,101839.50
2022-10-06T18:30:05.451Z,101844.13
2022-10-06T18:36:30.685Z,101839.09
2022-10-06T18:39:33.565Z,101838.56
2022-10-06T18:42:36.181Z,101840.75
2022-10-06T18:45:57.665Z,101840.75
2022-10-06T18:49:05.368Z,101845.75
2022-10-06T18:52:07.847Z,101851.25
2022-10-06T18:55:10.371Z,101853.97
2022-10-06T18:58:12.997Z,101857.66
2022-10-06T19:01:17.229Z,101860.41
2022-10-06T19:04:21.547Z,101852.97
2022-10-06T19:07:24.042Z,101857.13
2022-10-06T19:10:26.509Z,101855.25
2022-10-06T19:13:29.005Z,101849.13
2022-10-06T19:16:32.986Z,101864.88
2022-10-06T19:19:36.017Z,101863.44
2022-10-06T19:22:38.958Z,101868.53
2022-10-06T19:25:41.401Z,101869.31
2022-10-06T19:28:43.965Z,101870.31
2022-10-06T19:31:47.952Z,101867.91
2022-10-06T19:34:50.513Z,101863.38
2022-10-06T19:37:52.987Z,101865.22
2022-10-06T19:41:15.447Z,101865.44
2022-10-06T19:44:17.486Z,101865.75
2022-10-06T19:47:21.377Z,101875.25
2022-10-06T19:50:23.824Z,101881.66
2022-10-06T19:53:26.292Z,101878.38
2022-10-06T19:56:30.108Z,101880.38
2022-10-06T19:59:32.593Z,101874.06
2022-10-06T20:02:41.313Z,101877.97
2022-10-06T20:05:44.799Z,101884.53
2022-10-06T20:08:47.710Z,101889.81
2022-10-06T20:11:51.706Z,101892.16
2022-10-06T20:14:54.403Z,101886.03
2022-10-06T20:17:58.206Z,101894.19
2022-10-06T20:21:00.673Z,101892.41
2022-10-06T20:24:05.617Z,101892.03
2022-10-06T20:27:08.819Z,101883.78
2022-10-06T20:30:12.165Z,101894.25
2022-10-06T20:33:16.119Z,101894.22
2022-10-06T20:36:19.502Z,101900.41
2022-10-06T20:39:40.139Z,101905.50
2022-10-06T20:42:45.037Z,101907.53
2022-10-06T20:45:48.868Z,101911.22
2022-10-06T20:48:52.727Z,101913.16
2022-10-06T20:51:55.289Z,101908.19
2022-10-06T20:54:57.746Z,101907.88
2022-10-06T20:58:00.215Z,101911.56
2022-10-06T21:01:07.469Z,101910.13
2022-10-06T21:04:11.554Z,101918.75
2022-10-06T21:07:14.118Z,101910.38
2022-10-06T21:10:16.674Z,101914.19
2022-10-06T21:13:19.199Z,101912.75
2022-10-06T21:16:23.488Z,101901.22
2022-10-06T21:19:29.966Z,101897.22
2022-10-06T21:22:32.545Z,101887.06
2022-10-06T21:25:37.767Z,101891.69
2022-10-06T21:28:42.638Z,101893.63
2022-10-06T21:31:46.201Z,101893.34
2022-10-06T21:34:50.403Z,101890.28
2022-10-06T21:37:52.979Z,101885.03
2022-10-06T21:40:57.241Z,101886.75
2022-10-06T21:44:01.434Z,101887.69
2022-10-06T21:47:04.055Z,101880.94
2022-10-06T21:50:08.878Z,101891.47
2022-10-06T21:53:11.418Z,101880.34
2022-10-06T21:56:14.377Z,101881.53
2022-10-06T21:59:16.995Z,101893.19
2022-10-06T22:02:19.529Z,101893.72
2022-10-06T22:05:23.381Z,101890.69
2022-10-06T22:08:25.908Z,101889.22
2022-10-06T22:11:30.061Z,101888.28
2022-10-06T22:14:32.613Z,101882.09
2022-10-06T22:17:35.149Z,101890.38
2022-10-06T22:20:39.009Z,101886.13
2022-10-06T22:23:42.063Z,101892.75
2022-10-06T22:26:45.258Z,101880.25
2022-10-06T22:29:47.811Z,101878.59
2022-10-06T22:32:50.355Z,101887.22
2022-10-06T22:35:54.202Z,101880.56
2022-10-06T22:38:57.523Z,101866.72
2022-10-06T22:42:00.118Z,101864.50
2022-10-06T22:45:02.630Z,101872.81
2022-10-06T22:48:05.207Z,101868.03
2022-10-06T22:51:09.285Z,101863.09
2022-10-06T22:54:17.590Z,101854.91
2022-10-06T22:57:20.170Z,101858.09
2022-10-06T23:00:22.877Z,101858.38
2022-10-06T23:03:25.836Z,101857.97
2022-10-06T23:06:31.271Z,101842.44
2022-10-06T23:09:36.713Z,101849.81
2022-10-06T23:12:39.246Z,101846.06
2022-10-06T23:15:41.766Z,101842.53
2022-10-06T23:18:45.926Z,101844.16
2022-10-06T23:21:49.774Z,101842.78
2022-10-06T23:24:53.473Z,101842.16
2022-10-06T23:27:56.113Z,101843.31
2022-10-06T23:30:58.639Z,101843.84
2022-10-06T23:34:01.177Z,101838.69
2022-10-06T23:37:05.072Z,101848.66
2022-10-06T23:40:08.554Z,101847.69
2022-10-06T23:43:11.092Z,101852.94
2022-10-06T23:46:13.963Z,101849.59
2022-10-06T23:49:16.522Z,101859.94
2022-10-06T23:52:20.383Z,101854.78
2022-10-06T23:55:22.895Z,101859.06
2022-10-06T23:58:25.808Z,101859.47
